Time;durP1;ratioP1;P1;durP2;ratioP2;P2;SDS_P1;SDS_P2;PMS_P1;PMS_P2;Temp;Humidity;BMP_temperature;BMP_pressure;BME280_temperature;BME280_humidity;BME280_pressure;Samples;Min_cycle;Max_cycle;Signal;HPM_P1;HPM_P2
2022/05/25 00:01:42;;;;;;;8.60;1.02;;;;;;;14.20;64.38;100197.22;5074640;28;20103;-82
2022/05/25 00:04:08;;;;;;;6.30;0.88;;;;;;;14.16;64.30;100203.69;5070007;28;20025;-82
2022/05/25 00:06:33;;;;;;;2.00;0.60;;;;;;;14.15;64.76;100202.03;5054478;28;20490;-83
2022/05/25 00:08:59;;;;;;;1.77;0.55;;;;;;;14.20;64.93;100200.69;5066031;28;20060;-83
2022/05/25 00:11:25;;;;;;;3.58;0.68;;;;;;;14.22;64.63;100198.75;5074445;28;20108;-83
2022/05/25 00:13:50;;;;;;;3.03;0.70;;;;;;;14.26;64.85;100205.44;5072291;28;20025;-83
2022/05/25 00:16:16;;;;;;;7.07;1.13;;;;;;;14.20;64.38;100207.78;5061248;28;20056;-83
2022/05/25 00:19:58;;;;;;;3.80;1.42;;;;;;;14.21;64.81;100202.34;5074348;28;20382;-83
2022/05/25 00:21:28;;;;;;;2.65;0.70;;;;;;;14.23;65.32;100200.41;5074228;28;20058;-82
2022/05/25 00:23:53;;;;;;;3.42;0.80;;;;;;;14.31;64.79;100193.63;5073190;28;20029;-82
2022/05/25 00:26:18;;;;;;;4.90;0.82;;;;;;;14.40;64.75;100187.56;5072657;28;20021;-82
2022/05/25 00:28:44;;;;;;;5.80;0.68;;;;;;;14.45;64.65;100195.91;5074164;28;20131;-83
2022/05/25 00:31:09;;;;;;;1.92;0.47;;;;;;;14.51;64.34;100192.72;5074252;28;20032;-82
2022/05/25 00:33:35;;;;;;;4.47;0.85;;;;;;;14.33;64.59;100199.63;5074030;28;20138;-83
2022/05/25 00:36:00;;;;;;;9.30;1.13;;;;;;;14.15;64.96;100196.75;5072318;28;20047;-82
2022/05/25 00:38:26;;;;;;;2.97;0.52;;;;;;;14.40;64.88;100182.28;5071594;28;20040;-82
2022/05/25 00:40:51;;;;;;;3.00;0.70;;;;;;;14.29;64.88;100180.56;5071466;28;20020;-82
2022/05/25 00:43:17;;;;;;;5.28;1.00;;;;;;;14.53;64.53;100177.56;5074050;28;20016;-82
2022/05/25 00:45:51;;;;;;;5.78;1.00;;;;;;;14.57;64.52;100164.94;5074219;28;20536;-82
2022/05/25 00:48:33;;;;;;;7.68;1.02;;;;;;;14.75;63.48;100170.41;5073656;28;20028;-82
2022/05/25 00:51:13;;;;;;;2.80;0.88;;;;;;;14.61;63.71;100169.84;5072378;28;20429;-82
2022/05/25 00:53:45;;;;;;;3.97;1.02;;;;;;;14.73;63.78;100167.06;5073853;28;20470;-82
2022/05/25 00:56:15;;;;;;;3.78;1.00;;;;;;;14.66;63.32;100166.78;5073941;28;20032;-83
2022/05/25 00:58:47;;;;;;;8.48;2.45;;;;;;;14.70;63.58;100159.44;5072509;28;20024;-83
2022/05/25 01:01:13;;;;;;;8.95;0.80;;;;;;;14.70;63.81;100156.78;5072614;28;20028;-83
2022/05/25 01:03:38;;;;;;;2.78;0.90;;;;;;;14.73;63.96;100161.78;5073617;28;20378;-83
2022/05/25 01:06:07;;;;;;;5.18;0.70;;;;;;;14.76;63.37;100169.44;5072087;28;20024;-82
2022/05/25 01:08:57;;;;;;;3.70;0.80;;;;;;;14.78;63.49;100173.63;5073648;28;20077;-83
2022/05/25 01:11:44;;;;;;;4.60;0.70;;;;;;;14.80;63.22;100160.28;5073581;28;20024;-82
2022/05/25 01:14:32;;;;;;;4.78;1.08;;;;;;;14.80;62.46;100166.38;5073299;28;20024;-82
2022/05/25 01:17:22;;;;;;;3.42;0.70;;;;;;;14.83;62.64;100167.91;5053138;28;20139;-82
2022/05/25 01:19:59;;;;;;;6.13;1.17;;;;;;;14.80;63.14;100170.84;5073467;28;20028;-83
2022/05/25 01:22:55;;;;;;;3.78;0.90;;;;;;;14.81;63.06;100173.34;5073162;28;20043;-83
2022/05/25 01:25:56;;;;;;;4.30;0.73;;;;;;;14.71;63.27;100171.66;5073161;28;20531;-83
2022/05/25 01:28:43;;;;;;;7.53;0.80;;;;;;;14.77;63.17;100171.09;5073216;28;20052;-83
2022/05/25 01:31:14;;;;;;;4.70;0.93;;;;;;;14.67;62.95;100169.31;5073096;28;20032;-83
2022/05/25 01:33:53;;;;;;;5.03;0.68;;;;;;;14.67;63.88;100173.72;5073082;28;20289;-83
2022/05/25 01:36:21;;;;;;;2.47;0.60;;;;;;;14.56;64.10;100171.19;5072620;28;20071;-83
2022/05/25 01:38:56;;;;;;;5.03;0.60;;;;;;;14.54;63.60;100163.41;5073100;28;20025;-82
2022/05/25 01:41:29;;;;;;;1.63;0.73;;;;;;;14.57;64.40;100167.59;5072921;28;20386;-83
2022/05/25 01:43:59;;;;;;;3.17;0.80;;;;;;;14.51;64.20;100166.28;5071630;28;20032;-83
2022/05/25 01:46:34;;;;;;;2.65;0.70;;;;;;;14.52;64.35;100173.25;5072920;28;20054;-83
2022/05/25 01:49:05;;;;;;;3.95;0.80;;;;;;;14.56;64.30;100168.56;5071127;28;20024;-83
2022/05/25 01:51:35;;;;;;;2.72;0.57;;;;;;;14.55;64.31;100170.34;5071018;28;20028;-83
2022/05/25 01:54:04;;;;;;;1.85;0.70;;;;;;;14.58;63.90;100167.47;5072868;28;20486;-83
2022/05/25 01:56:32;;;;;;;1.67;0.60;;;;;;;14.49;63.90;100178.81;5072740;28;20471;-83
2022/05/25 01:59:01;;;;;;;4.95;0.60;;;;;;;14.52;64.59;100173.25;5072619;28;20039;-83
2022/05/25 02:01:26;;;;;;;6.05;0.98;;;;;;;14.64;63.91;100174.00;5071313;28;20123;-83
2022/05/25 02:07:04;;;;;;;2.33;0.68;;;;;;;14.67;63.52;100161.38;5055184;28;20067;-83
2022/05/25 02:09:53;;;;;;;1.70;0.77;;;;;;;14.59;63.60;100157.72;5072219;28;20024;-83
2022/05/25 02:12:43;;;;;;;3.47;1.60;;;;;;;14.60;63.86;100157.59;5072394;28;20028;-83
2022/05/25 02:15:14;;;;;;;5.03;0.70;;;;;;;14.65;63.96;100152.75;5072370;28;20478;-83
2022/05/25 02:17:53;;;;;;;4.37;1.60;;;;;;;14.68;63.54;100157.75;5072366;28;20051;-83
2022/05/25 02:20:40;;;;;;;7.18;1.33;;;;;;;14.72;63.55;100162.75;5072297;28;20277;-83
2022/05/25 02:23:27;;;;;;;6.35;0.85;;;;;;;14.74;63.17;100158.19;5071849;28;20033;-83
2022/05/25 02:26:08;;;;;;;2.63;0.70;;;;;;;14.67;63.41;100158.72;5070833;28;20032;-83
2022/05/25 02:28:39;;;;;;;6.88;0.90;;;;;;;14.63;63.36;100162.63;5072309;28;20028;-83
2022/05/25 02:31:11;;;;;;;7.53;0.95;;;;;;;14.64;63.11;100156.34;5072109;28;20028;-83
2022/05/25 02:33:41;;;;;;;4.53;0.80;;;;;;;14.63;63.22;100159.97;5072054;28;20029;-83
2022/05/25 02:36:08;;;;;;;5.10;1.33;;;;;;;14.59;63.74;100163.88;5071741;28;20039;-83
2022/05/25 02:38:37;;;;;;;3.05;0.80;;;;;;;14.64;62.76;100158.16;5071816;28;20078;-82
2022/05/25 02:41:30;;;;;;;6.40;1.00;;;;;;;14.68;63.50;100163.03;5070258;28;20069;-82
2022/05/25 02:43:56;;;;;;;7.63;1.10;;;;;;;14.58;63.54;100162.19;5070754;28;20073;-83
2022/05/25 02:46:21;;;;;;;6.38;1.10;;;;;;;14.52;63.48;100161.88;5070685;28;20531;-83
2022/05/25 02:48:47;;;;;;;4.07;1.00;;;;;;;14.52;63.91;100167.16;5071773;28;20029;-83
2022/05/25 02:51:12;;;;;;;3.92;0.77;;;;;;;14.54;63.83;100154.63;5071553;28;20398;-82
2022/05/25 02:53:37;;;;;;;6.60;0.88;;;;;;;14.59;63.24;100157.72;5071878;28;20386;-83
2022/05/25 02:56:03;;;;;;;4.78;1.23;;;;;;;14.51;63.74;100163.66;5071975;28;20050;-83
2022/05/25 02:58:28;;;;;;;4.72;1.02;;;;;;;14.40;64.14;100158.50;5071839;28;20027;-83
2022/05/25 03:00:54;;;;;;;4.25;1.25;;;;;;;14.44;64.19;100165.19;5071955;28;20386;-83
2022/05/25 03:03:20;;;;;;;5.32;0.95;;;;;;;14.44;64.32;100166.00;5071107;28;20032;-83
2022/05/25 03:05:45;;;;;;;5.43;1.05;;;;;;;14.22;64.69;100167.06;5070388;28;20032;-83
2022/05/25 03:08:11;;;;;;;6.80;1.20;;;;;;;14.45;64.51;100172.13;5071324;28;20107;-83
2022/05/25 03:10:36;;;;;;;6.22;1.08;;;;;;;14.46;64.48;100160.59;5071655;28;20036;-83
2022/05/25 03:13:05;;;;;;;8.52;1.88;;;;;;;14.14;65.71;100169.53;5071506;28;20071;-83
2022/05/25 03:15:31;;;;;;;7.75;1.50;;;;;;;14.47;64.46;100167.53;5070186;28;20029;-83
2022/05/25 03:17:56;;;;;;;6.10;1.52;;;;;;;14.48;64.43;100171.88;5071636;28;20031;-83
2022/05/25 03:20:22;;;;;;;5.10;0.95;;;;;;;14.53;64.24;100161.72;5070381;28;20020;-83
2022/05/25 03:22:47;;;;;;;5.53;1.10;;;;;;;14.38;64.40;100166.56;5071315;28;20052;-82
2022/05/25 03:25:13;;;;;;;12.25;2.70;;;;;;;14.50;64.52;100166.44;5071451;28;20021;-83
2022/05/25 03:27:39;;;;;;;22.60;4.88;;;;;;;14.37;64.91;100153.47;5070126;28;20029;-83
2022/05/25 03:30:08;;;;;;;5.63;1.15;;;;;;;14.35;64.98;100147.50;5070135;28;20089;-83
2022/05/25 03:32:34;;;;;;;8.77;2.00;;;;;;;14.44;64.82;100159.91;5071232;28;20027;-83
2022/05/25 03:35:02;;;;;;;3.90;1.15;;;;;;;14.43;64.47;100153.75;5071414;28;20033;-82
2022/05/25 03:37:27;;;;;;;6.03;1.13;;;;;;;14.40;64.91;100164.63;5070889;28;20029;-82
2022/05/25 03:39:53;;;;;;;7.90;1.45;;;;;;;14.18;65.38;100149.81;5071320;28;20085;-82
2022/05/25 03:42:19;;;;;;;7.72;1.90;;;;;;;14.38;64.79;100155.16;5071422;28;20029;-82
2022/05/25 03:44:45;;;;;;;8.98;1.52;;;;;;;14.47;64.89;100146.41;5071296;28;20052;-83
2022/05/25 03:47:10;;;;;;;12.27;1.55;;;;;;;14.51;64.46;100144.34;5069898;28;20032;-83
2022/05/25 03:49:36;;;;;;;9.60;1.20;;;;;;;14.12;65.91;100155.63;5069956;28;20505;-83
2022/05/25 03:52:03;;;;;;;8.80;1.52;;;;;;;14.12;65.88;100165.34;5071107;28;20401;-83
2022/05/25 03:54:28;;;;;;;9.82;2.95;;;;;;;14.19;66.06;100162.03;5070179;28;20083;-83
2022/05/25 03:56:54;;;;;;;8.95;1.45;;;;;;;14.32;65.59;100153.06;5071330;28;20029;-83
2022/05/25 03:59:19;;;;;;;6.60;1.50;;;;;;;14.49;65.07;100157.66;5071233;28;20029;-83
2022/05/25 04:01:45;;;;;;;4.38;1.05;;;;;;;14.32;65.62;100158.34;5070851;28;20535;-83
2022/05/25 04:04:10;;;;;;;8.27;1.60;;;;;;;14.32;65.87;100161.81;5069867;28;20237;-82
2022/05/25 04:06:36;;;;;;;8.18;1.73;;;;;;;14.05;66.87;100170.31;5070840;28;20027;-83
2022/05/25 04:09:02;;;;;;;8.82;1.38;;;;;;;14.32;66.03;100161.81;5071153;28;20048;-83
2022/05/25 04:11:27;;;;;;;8.38;1.30;;;;;;;14.36;65.80;100168.50;5071120;28;20020;-83
2022/05/25 04:13:53;;;;;;;10.68;2.22;;;;;;;14.34;65.97;100153.75;5071626;28;20060;-83
2022/05/25 04:16:18;;;;;;;12.85;1.65;;;;;;;14.50;65.12;100148.78;5074784;28;20111;-82
2022/05/25 04:18:43;;;;;;;9.95;1.33;;;;;;;14.55;65.68;100154.47;5074333;28;20059;-83
2022/05/25 04:21:09;;;;;;;5.72;1.20;;;;;;;14.57;65.24;100155.22;5074052;28;20382;-83
2022/05/25 04:23:34;;;;;;;4.10;1.20;;;;;;;14.45;65.94;100156.28;5073174;28;20063;-83
2022/05/25 04:25:59;;;;;;;9.40;1.77;;;;;;;14.67;64.85;100155.22;5074338;28;20032;-83
2022/05/25 04:28:25;;;;;;;10.63;1.75;;;;;;;14.75;64.36;100155.41;5074574;28;20027;-83
2022/05/25 04:30:50;;;;;;;5.78;1.35;;;;;;;14.80;64.10;100155.81;5074395;28;20035;-83
2022/05/25 04:33:16;;;;;;;10.10;1.60;;;;;;;14.80;64.80;100168.19;5073927;28;20056;-82
2022/05/25 04:35:42;;;;;;;8.02;1.67;;;;;;;14.70;65.17;100176.09;5074025;28;20101;-83
2022/05/25 04:38:08;;;;;;;7.43;1.50;;;;;;;14.71;64.93;100175.16;5073103;28;20155;-82
2022/05/25 04:40:40;;;;;;;13.02;1.63;;;;;;;14.63;65.40;100170.53;5074327;28;20107;-82
2022/05/25 04:43:09;;;;;;;9.15;1.60;;;;;;;14.62;65.42;100170.69;5074265;28;20033;-82
2022/05/25 04:45:37;;;;;;;5.40;1.60;;;;;;;14.83;64.64;100176.69;5073832;28;20029;-82
2022/05/25 04:48:02;;;;;;;9.10;1.17;;;;;;;14.83;64.48;100171.41;5074031;28;20489;-82
2022/05/25 04:50:33;;;;;;;6.15;1.20;;;;;;;14.83;64.32;100166.13;5073826;28;20029;-82
2022/05/25 04:52:59;;;;;;;8.75;1.25;;;;;;;14.86;64.61;100165.00;5074083;28;20021;-83
2022/05/25 04:58:18;;;;;;;6.68;1.08;;;;;;;15.11;63.68;100178.66;5074086;28;20052;-83
2022/05/25 05:00:43;;;;;;;3.20;1.10;;;;;;;14.93;63.86;100167.91;5074145;28;20025;-82
2022/05/25 05:03:08;;;;;;;10.43;1.42;;;;;;;14.78;64.80;100172.78;5073667;28;20509;-83
2022/05/25 05:05:34;;;;;;;7.97;0.95;;;;;;;14.75;64.88;100168.63;5073339;28;20035;-82
2022/05/25 05:07:59;;;;;;;6.60;0.90;;;;;;;14.97;64.37;100167.53;5073644;28;20047;-82
2022/05/25 05:10:25;;;;;;;8.50;1.27;;;;;;;14.97;64.92;100162.22;5073606;28;20494;-83
2022/05/25 05:12:50;;;;;;;7.38;1.77;;;;;;;15.06;64.83;100155.25;5073669;28;20471;-82
2022/05/25 05:15:15;;;;;;;7.03;1.17;;;;;;;15.21;63.76;100153.06;5073602;28;20383;-82
2022/05/25 05:17:41;;;;;;;11.65;2.63;;;;;;;15.19;64.25;100149.72;5073461;28;20028;-83
2022/05/25 05:20:07;;;;;;;2.40;1.08;;;;;;;15.46;62.86;100157.75;5073085;28;20109;-83
2022/05/25 05:22:34;;;;;;;11.82;2.30;;;;;;;15.64;62.93;100151.72;5073610;28;20040;-83
2022/05/25 05:24:59;;;;;;;14.05;1.65;;;;;;;15.58;63.01;100149.63;5072841;28;20352;-82
2022/05/25 05:27:25;;;;;;;7.45;1.40;;;;;;;15.69;62.67;100140.69;5073260;28;20040;-82
2022/05/25 05:29:50;;;;;;;10.75;1.73;;;;;;;15.62;62.84;100151.00;5073146;28;20025;-83
2022/05/25 05:32:15;;;;;;;10.05;1.50;;;;;;;15.86;62.15;100155.88;5073042;28;20059;-83
2022/05/25 05:34:41;;;;;;;5.75;1.45;;;;;;;15.32;63.63;100159.97;5072872;28;20020;-83
2022/05/25 05:37:14;;;;;;;7.78;1.33;;;;;;;15.63;63.11;100152.69;5072805;28;20028;-83
2022/05/25 05:39:44;;;;;;;11.73;1.77;;;;;;;15.45;62.87;100145.47;5072763;28;20367;-82
2022/05/25 05:42:14;;;;;;;8.75;1.42;;;;;;;15.25;63.39;100160.56;5073146;28;20043;-82
2022/05/25 05:44:45;;;;;;;11.07;1.40;;;;;;;15.73;62.62;100156.16;5072456;28;20443;-82
2022/05/25 05:47:15;;;;;;;5.40;1.20;;;;;;;15.73;62.75;100155.34;5071542;28;20028;-82
2022/05/25 05:49:41;;;;;;;8.40;1.27;;;;;;;15.73;62.12;100153.53;5072972;28;20490;-83
2022/05/25 05:52:07;;;;;;;8.55;1.33;;;;;;;15.81;62.29;100164.22;5066847;28;20035;-83
2022/05/25 05:54:33;;;;;;;5.53;1.15;;;;;;;15.75;62.54;100159.50;5052548;28;20028;-83
2022/05/25 05:56:59;;;;;;;8.02;0.95;;;;;;;15.58;63.05;100160.22;5071788;28;20030;-83
2022/05/25 05:59:25;;;;;;;11.70;2.00;;;;;;;15.92;62.24;100162.41;5072348;28;20486;-84
2022/05/25 06:01:50;;;;;;;14.65;2.40;;;;;;;15.77;61.97;100159.38;5072277;28;20106;-83
2022/05/25 06:04:16;;;;;;;4.85;1.10;;;;;;;15.59;63.00;100167.19;5070941;28;20346;-83
2022/05/25 06:06:42;;;;;;;6.30;1.00;;;;;;;15.80;62.26;100165.22;5068454;28;20171;-83
2022/05/25 06:09:07;;;;;;;7.05;1.60;;;;;;;15.64;62.60;100171.09;5071811;28;20116;-82
2022/05/25 06:11:41;;;;;;;8.88;1.40;;;;;;;15.75;62.46;100170.09;5067186;28;20013;-83
2022/05/25 06:14:07;;;;;;;11.57;2.00;;;;;;;16.00;61.54;100170.47;5061364;28;20025;-83
2022/05/25 06:19:25;;;;;;;12.75;2.45;;;;;;;15.77;62.14;100170.78;5071636;28;20073;-82
2022/05/25 06:22:03;;;;;;;13.02;1.60;;;;;;;15.81;62.45;100172.16;5065674;28;20526;-83
2022/05/25 06:24:30;;;;;;;7.97;1.20;;;;;;;15.94;62.15;100171.03;5071024;28;20036;-83
2022/05/25 06:26:56;;;;;;;8.95;1.10;;;;;;;15.99;62.40;100168.78;5070007;28;20047;-83
2022/05/25 06:29:22;;;;;;;6.60;1.17;;;;;;;15.56;63.09;100159.53;5061695;28;20108;-83
2022/05/25 06:31:48;;;;;;;11.70;1.65;;;;;;;16.09;62.22;100164.25;5071814;28;20017;-83
2022/05/25 06:34:14;;;;;;;12.52;1.70;;;;;;;15.85;62.56;100162.13;5069010;28;20024;-83
2022/05/25 06:36:41;;;;;;;11.18;1.77;;;;;;;16.11;62.52;100169.44;5058948;28;20116;-83
2022/05/25 06:39:07;;;;;;;15.05;1.35;;;;;;;15.86;62.34;100167.28;5050227;28;20025;-82
2022/05/25 06:41:32;;;;;;;9.32;1.23;;;;;;;15.72;63.04;100162.44;5052817;28;20032;-82
2022/05/25 06:43:58;;;;;;;12.65;1.98;;;;;;;15.87;62.32;100157.53;5062726;28;20039;-83
2022/05/25 06:46:23;;;;;;;7.28;1.10;;;;;;;16.01;62.02;100164.16;5054472;28;20021;-83
2022/05/25 06:48:51;;;;;;;5.88;1.08;;;;;;;16.26;61.40;100160.84;5051090;28;20027;-83
2022/05/25 06:51:22;;;;;;;11.27;1.33;;;;;;;16.23;62.22;100162.94;5050814;28;20047;-83
2022/05/25 06:53:49;;;;;;;11.35;1.35;;;;;;;16.23;62.08;100158.50;5054444;28;20033;-83
2022/05/25 06:56:16;;;;;;;10.38;1.52;;;;;;;16.27;61.52;100156.38;5050999;28;20024;-83
2022/05/25 06:58:43;;;;;;;5.80;1.35;;;;;;;16.15;61.84;100152.25;5057185;28;20029;-83
2022/05/25 07:01:09;;;;;;;8.43;1.92;;;;;;;16.13;61.59;100149.75;5063939;28;20024;-83
2022/05/25 07:03:34;;;;;;;6.55;1.00;;;;;;;16.20;61.80;100158.78;5068354;28;20028;-82
2022/05/25 07:06:07;;;;;;;11.32;1.63;;;;;;;15.98;61.84;100161.81;5069511;28;20033;-83
2022/05/25 07:08:32;;;;;;;9.75;1.38;;;;;;;15.89;62.97;100168.81;5060249;28;20187;-82
2022/05/25 07:10:58;;;;;;;6.28;1.30;;;;;;;15.70;63.15;100167.03;5050756;28;20112;-82
2022/05/25 07:13:24;;;;;;;14.60;1.10;;;;;;;15.53;63.46;100159.81;5051996;28;20104;-82
2022/05/25 07:15:54;;;;;;;5.85;1.00;;;;;;;15.89;62.84;100166.16;5050530;28;20028;-82
2022/05/25 07:18:20;;;;;;;6.95;1.33;;;;;;;16.21;62.14;100163.13;5065408;28;20025;-83
2022/05/25 07:20:45;;;;;;;5.55;1.15;;;;;;;16.18;62.18;100155.44;5070755;28;20033;-82
2022/05/25 07:23:10;;;;;;;9.35;1.42;;;;;;;15.99;62.24;100152.88;5071576;28;20459;-83
2022/05/25 07:25:36;;;;;;;8.27;1.35;;;;;;;16.03;62.71;100154.25;5070287;28;20025;-83
2022/05/25 07:28:01;;;;;;;7.95;1.92;;;;;;;16.39;61.84;100151.72;5071299;28;20025;-83
2022/05/25 07:30:28;;;;;;;7.35;1.08;;;;;;;16.02;62.71;100153.44;5069450;28;20470;-83
2022/05/25 07:32:57;;;;;;;10.95;1.75;;;;;;;16.36;62.43;100155.50;5070013;28;20021;-82
2022/05/25 07:35:22;;;;;;;14.93;1.65;;;;;;;16.29;62.09;100153.59;5059971;28;20103;-82
2022/05/25 07:37:52;;;;;;;3.97;1.05;;;;;;;16.63;61.86;100152.00;5070658;28;20021;-83
2022/05/25 07:40:22;;;;;;;7.78;1.30;;;;;;;16.42;62.49;100148.78;5070680;28;20493;-82
2022/05/25 07:42:51;;;;;;;8.15;1.20;;;;;;;16.32;62.65;100148.84;5070996;28;20031;-83
2022/05/25 07:45:16;;;;;;;8.32;1.45;;;;;;;16.69;62.34;100160.34;5071173;28;20028;-83
2022/05/25 07:47:41;;;;;;;3.63;0.98;;;;;;;16.52;62.50;100148.72;5071484;28;20536;-83
2022/05/25 07:50:07;;;;;;;7.43;1.60;;;;;;;16.61;62.77;100153.97;5076311;28;20099;-83
2022/05/25 07:52:36;;;;;;;7.13;1.33;;;;;;;16.48;62.24;100161.44;5075044;28;20117;-83
2022/05/25 07:55:02;;;;;;;8.98;1.60;;;;;;;16.86;61.44;100164.84;5074410;28;20029;-83
2022/05/25 07:57:28;;;;;;;6.22;1.13;;;;;;;16.54;62.92;100162.66;5074773;28;20028;-83
2022/05/25 07:59:53;;;;;;;3.65;1.10;;;;;;;17.04;61.32;100164.84;5074966;28;20029;-83
2022/05/25 08:08:23;;;;;;;9.15;0.82;;;;;;;16.50;63.29;100161.28;5074793;28;20249;-83
2022/05/25 08:10:51;;;;;;;6.85;1.23;;;;;;;16.91;62.39;100173.19;5074369;28;20107;-82
2022/05/25 08:13:18;;;;;;;2.75;0.65;;;;;;;16.47;63.89;100175.69;5073306;28;20035;-83
2022/05/25 08:15:45;;;;;;;6.35;0.95;;;;;;;16.52;64.31;100170.75;5073518;28;20066;-83
2022/05/25 08:18:11;;;;;;;7.30;0.80;;;;;;;16.88;63.29;100165.53;5074735;28;20021;-83
2022/05/25 08:20:37;;;;;;;4.80;0.65;;;;;;;17.10;62.92;100174.88;5074450;28;20029;-83
2022/05/25 08:23:04;;;;;;;4.65;0.93;;;;;;;16.97;63.51;100174.41;5074517;28;20033;-83
2022/05/25 08:25:30;;;;;;;2.25;0.52;;;;;;;16.65;65.26;100171.22;5074234;28;20078;-83
2022/05/25 08:27:55;;;;;;;4.25;1.02;;;;;;;17.08;64.54;100165.38;5074401;28;20032;-83
2022/05/25 08:30:21;;;;;;;3.78;0.68;;;;;;;17.34;64.38;100171.56;5074858;28;20486;-83
2022/05/25 08:32:47;;;;;;;3.90;0.65;;;;;;;17.47;63.33;100165.03;5074095;28;20474;-83
2022/05/25 08:35:13;;;;;;;2.90;0.70;;;;;;;17.21;64.16;100166.66;5074371;28;20317;-83
2022/05/25 08:37:41;;;;;;;7.50;0.60;;;;;;;17.07;64.91;100161.06;5074249;28;20435;-83
2022/05/25 08:40:07;;;;;;;2.78;0.50;;;;;;;17.59;63.67;100167.25;5073517;28;20041;-83
2022/05/25 08:42:49;;;;;;;3.63;1.15;;;;;;;17.22;64.41;100160.38;5074043;28;20105;-83
2022/05/25 08:45:15;;;;;;;5.00;0.85;;;;;;;17.11;65.02;100168.56;5072961;28;20077;-83
2022/05/25 08:47:50;;;;;;;2.58;0.60;;;;;;;16.81;65.88;100164.44;5074188;28;20496;-83
2022/05/25 08:50:15;;;;;;;4.38;0.55;;;;;;;17.50;64.65;100159.41;5073916;28;20056;-83
2022/05/25 08:52:43;;;;;;;2.38;0.68;;;;;;;17.33;64.47;100159.28;5074006;28;20056;-83
2022/05/25 08:55:12;;;;;;;6.65;0.90;;;;;;;17.07;65.18;100159.25;5073569;28;20028;-83
2022/05/25 08:57:46;;;;;;;3.00;0.60;;;;;;;17.05;65.13;100155.91;5073830;28;20032;-83
2022/05/25 09:00:16;;;;;;;5.05;0.85;;;;;;;17.39;64.66;100163.97;5072933;28;20494;-83
2022/05/25 09:02:45;;;;;;;4.20;0.77;;;;;;;17.38;65.19;100172.09;5073989;28;20028;-83
2022/05/25 09:05:26;;;;;;;5.80;1.13;;;;;;;17.49;64.68;100173.66;5073846;28;20025;-83
2022/05/25 09:08:21;;;;;;;2.47;0.53;;;;;;;17.75;64.85;100153.28;5073702;28;20081;-83
2022/05/25 09:11:10;;;;;;;1.48;0.40;;;;;;;17.91;63.81;100152.56;5073172;28;20027;-83
2022/05/25 09:13:42;;;;;;;1.48;0.25;;;;;;;17.92;63.17;100156.06;5073486;28;20051;-83
2022/05/25 09:16:16;;;;;;;5.07;0.63;;;;;;;17.81;64.24;100150.00;5073756;28;20031;-83
2022/05/25 09:19:05;;;;;;;2.38;0.50;;;;;;;17.93;63.16;100163.00;5073470;28;20474;-83
2022/05/25 09:21:36;;;;;;;4.22;0.70;;;;;;;17.48;64.93;100150.78;5073062;28;20039;-83
2022/05/25 09:24:08;;;;;;;5.10;0.68;;;;;;;17.66;65.29;100156.88;5073310;28;20020;-83
2022/05/25 09:26:33;;;;;;;1.40;0.50;;;;;;;18.10;64.56;100154.13;5072886;28;20025;-83
2022/05/25 09:29:02;;;;;;;3.38;0.50;;;;;;;17.87;65.00;100156.53;5073277;28;20032;-83
2022/05/25 09:31:34;;;;;;;3.00;0.60;;;;;;;17.97;65.14;100153.75;5073159;28;20025;-83
2022/05/25 09:34:07;;;;;;;4.45;0.60;;;;;;;17.92;65.63;100154.22;5073167;28;20532;-83
2022/05/25 09:37:06;;;;;;;3.00;0.75;;;;;;;17.97;65.91;100153.75;5073318;28;20036;-83
2022/05/25 09:39:34;;;;;;;2.70;0.60;;;;;;;17.95;66.01;100159.22;5072806;28;20032;-83
2022/05/25 09:42:03;;;;;;;1.98;0.68;;;;;;;18.07;66.15;100156.28;5072537;28;20040;-84
2022/05/25 09:44:29;;;;;;;5.60;0.80;;;;;;;18.20;66.05;100162.81;5072730;28;20078;-83
2022/05/25 09:47:16;;;;;;;2.67;0.47;;;;;;;17.75;67.98;100161.25;5073081;28;20032;-83
2022/05/25 09:49:45;;;;;;;1.73;0.45;;;;;;;18.04;66.53;100162.75;5072853;28;20025;-83
2022/05/25 09:52:15;;;;;;;2.38;0.40;;;;;;;18.12;66.45;100164.63;5072425;28;20028;-83
2022/05/25 09:54:50;;;;;;;1.35;0.30;;;;;;;17.73;67.63;100162.38;5071177;28;20689;-83
2022/05/25 09:57:21;;;;;;;0.50;0.30;;;;;;;18.08;66.08;100172.06;5072637;28;20032;-83
2022/05/25 10:00:15;;;;;;;0.68;0.30;;;;;;;18.06;67.46;100176.72;5072534;28;20024;-84
2022/05/25 10:02:49;;;;;;;1.02;0.40;;;;;;;17.50;67.08;100180.66;5072424;28;20450;-83
2022/05/25 10:05:27;;;;;;;1.27;0.55;;;;;;;18.04;66.02;100179.50;5072637;28;20055;-84
2022/05/25 10:08:15;;;;;;;1.77;0.43;;;;;;;17.49;67.80;100179.81;5072473;28;20029;-83
2022/05/25 10:10:50;;;;;;;1.58;0.50;;;;;;;17.91;67.48;100172.97;5071960;28;20056;-83
2022/05/25 10:13:25;;;;;;;0.98;0.43;;;;;;;18.03;67.52;100180.53;5072266;28;20023;-84
2022/05/25 10:15:51;;;;;;;2.55;1.25;;;;;;;18.14;67.58;100178.56;5071999;28;20491;-83
2022/05/25 10:18:34;;;;;;;4.68;0.55;;;;;;;18.01;67.17;100181.69;5072355;28;20044;-83
2022/05/25 10:21:01;;;;;;;1.48;0.40;;;;;;;17.94;67.83;100188.59;5071162;28;20035;-84
2022/05/25 10:23:27;;;;;;;1.98;0.47;;;;;;;18.13;67.38;100193.69;5070949;28;20029;-84
2022/05/25 10:25:58;;;;;;;1.02;0.40;;;;;;;17.87;68.02;100188.41;5069238;28;20025;-84
2022/05/25 10:28:32;;;;;;;1.10;0.40;;;;;;;18.03;67.58;100192.97;5052157;28;20079;-83
2022/05/25 10:36:58;;;;;;;1.02;0.35;;;;;;;18.63;66.76;100190.22;5072294;28;20107;-84
2022/05/25 10:39:29;;;;;;;0.95;0.17;;;;;;;18.21;67.13;100196.38;5071861;28;20493;-84
2022/05/25 10:42:18;;;;;;;1.02;0.40;;;;;;;18.71;66.45;100193.91;5071679;28;20127;-84
2022/05/25 10:45:15;;;;;;;0.70;0.28;;;;;;;18.56;66.64;100193.69;5071947;28;20045;-84
2022/05/25 10:47:43;;;;;;;0.88;0.28;;;;;;;18.62;67.12;100193.88;5070352;28;20051;-86
2022/05/25 10:50:16;;;;;;;0.55;0.30;;;;;;;18.89;66.16;100196.47;5070147;28;20029;-86
2022/05/25 10:52:49;;;;;;;1.33;0.35;;;;;;;18.32;67.30;100191.78;5070251;28;20216;-84
2022/05/25 10:55:14;;;;;;;2.40;0.20;;;;;;;18.73;66.70;100194.56;5070626;28;20110;-83
2022/05/25 10:58:01;;;;;;;0.52;0.20;;;;;;;18.96;66.65;100194.84;5070712;28;20475;-84
2022/05/25 11:01:07;;;;;;;1.55;0.22;;;;;;;18.77;66.78;100194.06;5071902;28;20039;-84
2022/05/25 11:04:09;;;;;;;1.15;0.30;;;;;;;18.70;67.05;100200.22;5065761;28;20127;-84
2022/05/25 11:06:44;;;;;;;0.95;0.30;;;;;;;18.58;67.77;100205.00;5071711;28;20470;-83
2022/05/25 11:09:28;;;;;;;1.35;0.20;;;;;;;18.95;67.13;100215.25;5071523;28;20025;-84
2022/05/25 11:12:09;;;;;;;1.38;0.30;;;;;;;18.93;67.18;100206.63;5070078;28;20020;-84
2022/05/25 11:14:55;;;;;;;1.63;0.40;;;;;;;18.40;68.77;100210.41;5066311;28;20458;-84
2022/05/25 11:17:53;;;;;;;1.55;0.43;;;;;;;18.72;68.43;100209.72;5061275;28;20055;-84
2022/05/25 11:20:56;;;;;;;5.10;0.65;;;;;;;18.28;69.28;100212.50;5071476;28;20029;-84
2022/05/25 11:23:43;;;;;;;5.78;0.75;;;;;;;18.46;69.54;100220.41;5056312;28;20025;-84
2022/05/25 11:26:41;;;;;;;5.93;1.00;;;;;;;17.94;69.98;100218.66;5059533;28;20579;-84
2022/05/25 11:29:06;;;;;;;3.85;1.00;;;;;;;17.60;71.77;100213.25;5057902;28;20043;-84
2022/05/25 11:31:45;;;;;;;6.75;1.80;;;;;;;18.14;70.88;100215.78;5075392;28;20024;-84
2022/05/25 11:34:11;;;;;;;10.40;1.75;;;;;;;18.51;69.72;100217.28;5064568;28;20475;-84
2022/05/25 11:37:07;;;;;;;11.35;1.90;;;;;;;18.73;68.88;100215.84;5055211;28;20066;-84
2022/05/25 11:39:58;;;;;;;8.68;1.70;;;;;;;18.74;67.92;100209.53;5055097;28;20025;-84
2022/05/25 11:43:10;;;;;;;10.65;2.03;;;;;;;18.83;68.30;100214.72;5055071;28;20501;-84
2022/05/25 11:45:54;;;;;;;9.70;2.10;;;;;;;19.02;68.11;100218.94;5033664;28;20038;-84
2022/05/25 11:49:01;;;;;;;14.50;2.42;;;;;;;18.62;68.52;100215.16;5032824;28;20610;-84
2022/05/25 11:51:45;;;;;;;12.00;2.67;;;;;;;18.08;70.81;100219.06;5048031;28;20441;-83
2022/05/25 11:54:42;;;;;;;17.98;3.35;;;;;;;18.00;71.44;100225.97;5074013;28;20016;-84
2022/05/25 11:57:10;;;;;;;14.27;2.67;;;;;;;18.36;69.26;100225.84;5074043;28;20457;-84
2022/05/25 12:00:17;;;;;;;13.35;2.40;;;;;;;18.81;68.90;100223.88;5073554;28;20025;-84
2022/05/25 12:03:11;;;;;;;12.73;2.97;;;;;;;18.67;69.21;100227.13;5073692;28;20494;-84
2022/05/25 12:05:39;;;;;;;17.83;3.08;;;;;;;18.68;67.69;100232.31;5073671;28;20489;-84